createdAt,value
2019-04-01T00:03:20.463Z,99.90
2019-04-01T00:08:13.385Z,99.90
2019-04-01T00:13:05.929Z,99.90
2019-04-01T00:17:58.319Z,99.90
2019-04-01T00:22:51.025Z,99.90
2019-04-01T00:27:43.786Z,99.90
2019-04-01T00:32:36.032Z,99.90
2019-04-01T00:37:28.467Z,99.90
2019-04-01T00:42:22.589Z,99.90
2019-04-01T00:47:15.261Z,99.90
2019-04-01T00:52:07.641Z,99.90
2019-04-01T00:57:00.048Z,99.90
2019-04-01T01:01:52.509Z,99.90
2019-04-01T01:06:45.018Z,99.90
2019-04-01T01:11:37.374Z,99.90
2019-04-01T01:16:29.542Z,99.90
2019-04-01T01:21:22.153Z,99.90
2019-04-01T01:26:14.718Z,99.90
2019-04-01T01:31:07.283Z,99.90
2019-04-01T01:35:59.605Z,99.90
2019-04-01T01:40:52.322Z,99.90
2019-04-01T01:45:44.817Z,99.90
2019-04-01T01:50:37.385Z,99.90
2019-04-01T01:55:30.119Z,99.90
2019-04-01T02:00:23.841Z,99.90
2019-04-01T02:05:16.315Z,99.90
2019-04-01T02:10:09.333Z,99.90
2019-04-01T02:15:01.847Z,99.90
2019-04-01T02:19:54.017Z,99.90
2019-04-01T02:24:46.645Z,99.90
2019-04-01T02:29:39.316Z,99.90
2019-04-01T02:34:31.882Z,99.90
2019-04-01T02:39:24.468Z,99.90
2019-04-01T02:44:16.978Z,99.90
2019-04-01T02:49:09.570Z,99.90
2019-04-01T02:54:02.261Z,99.90
2019-04-01T02:58:55.019Z,99.90
2019-04-01T03:03:47.720Z,99.90
2019-04-01T03:08:40.134Z,99.90
2019-04-01T03:13:32.812Z,99.90
2019-04-01T03:18:25.554Z,99.90
2019-04-01T03:23:18.337Z,99.90
2019-04-01T03:28:10.916Z,99.90
2019-04-01T03:33:03.541Z,99.90
2019-04-01T03:37:56.077Z,99.90
2019-04-01T03:42:48.517Z,99.90
2019-04-01T03:47:42.901Z,99.90
2019-04-01T03:52:35.763Z,99.90
2019-04-01T03:57:28.557Z,99.90
2019-04-01T04:02:21.262Z,99.90
2019-04-01T04:07:13.848Z,99.90
2019-04-01T04:12:06.341Z,99.90
2019-04-01T04:16:59.437Z,99.90
2019-04-01T04:21:51.942Z,99.90
2019-04-01T04:26:44.327Z,99.90
2019-04-01T04:31:36.646Z,99.90
2019-04-01T04:36:30.435Z,99.90
2019-04-01T04:41:23.061Z,99.90
2019-04-01T04:46:15.587Z,99.90
2019-04-01T04:51:08.082Z,99.90
2019-04-01T04:56:00.532Z,99.90
2019-04-01T05:00:52.954Z,99.90
2019-04-01T05:05:45.525Z,99.90
2019-04-01T05:10:38.013Z,99.90
2019-04-01T05:15:30.400Z,99.90
2019-04-01T05:20:23.001Z,99.90
2019-04-01T05:25:15.987Z,99.90
2019-04-01T05:30:09.777Z,99.90
2019-04-01T05:35:05.194Z,99.90
2019-04-01T05:39:58.533Z,99.90
2019-04-01T05:44:51.230Z,99.90
2019-04-01T05:49:43.717Z,99.90
2019-04-01T05:54:36.560Z,99.90
2019-04-01T05:59:29.174Z,99.90
2019-04-01T06:04:21.885Z,99.90
2019-04-01T06:09:14.599Z,99.90
2019-04-01T06:14:07.397Z,99.90
2019-04-01T06:19:00.789Z,99.90
2019-04-01T06:23:53.453Z,99.90
2019-04-01T06:28:45.962Z,99.90
2019-04-01T06:33:38.614Z,99.90
2019-04-01T06:38:31.270Z,99.90
2019-04-01T06:43:24.052Z,99.90
2019-04-01T06:48:16.721Z,99.90
2019-04-01T06:53:09.364Z,99.90
2019-04-01T06:58:01.872Z,99.90
2019-04-01T07:02:54.255Z,99.90
2019-04-01T07:07:47.115Z,99.90
2019-04-01T07:12:39.802Z,99.90
2019-04-01T07:17:32.505Z,99.90
2019-04-01T07:22:25.219Z,99.90
2019-04-01T07:27:17.579Z,99.90
2019-04-01T07:32:09.936Z,99.90
2019-04-01T07:37:02.942Z,99.90
2019-04-01T07:41:55.582Z,99.90
2019-04-01T07:46:48.280Z,96.60
2019-04-01T07:51:41.151Z,92.30
2019-04-01T07:56:33.679Z,86.50
2019-04-01T08:01:26.265Z,79.00
2019-04-01T08:06:19.081Z,79.50
2019-04-01T08:11:11.758Z,75.30
2019-04-01T08:16:04.054Z,71.10
2019-04-01T08:20:56.862Z,72.80
2019-04-01T08:25:49.193Z,72.20
2019-04-01T08:30:41.670Z,73.40
2019-04-01T08:35:34.613Z,71.30
2019-04-01T08:40:26.977Z,69.20
2019-04-01T08:45:19.506Z,64.20
2019-04-01T08:50:12.347Z,60.00
2019-04-01T08:55:06.817Z,58.60
2019-04-01T08:59:59.404Z,57.10
2019-04-01T09:04:51.626Z,55.70
2019-04-01T09:09:44.297Z,54.60
2019-04-01T09:14:37.764Z,52.90
2019-04-01T09:19:30.121Z,53.10
2019-04-01T09:24:22.833Z,54.30
2019-04-01T09:29:15.279Z,53.50
2019-04-01T09:34:08.017Z,53.10
2019-04-01T09:39:00.392Z,53.30
2019-04-01T09:43:53.023Z,51.10
2019-04-01T09:48:45.723Z,50.60
2019-04-01T09:53:38.047Z,51.40
2019-04-01T09:58:30.525Z,49.80
2019-04-01T10:03:23.222Z,47.50
2019-04-01T10:08:15.826Z,46.80
2019-04-01T10:13:08.509Z,44.40
2019-04-01T10:18:01.024Z,45.60
2019-04-01T10:22:53.801Z,44.00
2019-04-01T10:27:46.785Z,45.10
2019-04-01T10:32:39.608Z,46.20
2019-04-01T10:37:31.915Z,46.40
2019-04-01T10:42:24.565Z,44.40
2019-04-01T10:47:17.981Z,42.70
2019-04-01T10:52:10.713Z,42.50
2019-04-01T10:57:03.260Z,42.50
2019-04-01T11:01:56.160Z,42.10
2019-04-01T11:06:48.951Z,40.70
2019-04-01T11:11:41.406Z,41.50
2019-04-01T11:16:34.586Z,42.10
2019-04-01T11:21:38.392Z,42.80
2019-04-01T11:26:30.766Z,41.40
2019-04-01T11:31:24.916Z,41.20
2019-04-01T11:36:22.918Z,41.10
2019-04-01T11:41:24.423Z,42.40
2019-04-01T11:46:17.532Z,41.50
2019-04-01T11:51:10.082Z,40.60
2019-04-01T11:56:03.120Z,41.90
2019-04-01T12:00:55.763Z,42.10
2019-04-01T12:05:48.170Z,42.80
2019-04-01T12:10:40.816Z,42.60
2019-04-01T12:15:33.645Z,42.20
2019-04-01T12:20:26.375Z,41.20
2019-04-01T12:25:18.766Z,40.80
2019-04-01T12:30:11.757Z,41.50
2019-04-01T12:35:04.840Z,40.50
2019-04-01T12:39:57.188Z,40.00
2019-04-01T12:44:49.377Z,40.20
2019-04-01T12:49:42.113Z,40.30
2019-04-01T12:54:34.389Z,39.00
2019-04-01T12:59:27.154Z,39.20
2019-04-01T13:04:19.518Z,39.70
2019-04-01T13:09:12.021Z,39.70
2019-04-01T13:14:05.182Z,40.00
2019-04-01T13:18:57.693Z,38.20
2019-04-01T13:23:50.489Z,38.00
2019-04-01T13:28:42.994Z,36.60
2019-04-01T13:33:35.738Z,38.10
2019-04-01T13:38:28.129Z,39.20
2019-04-01T13:43:20.545Z,39.90
2019-04-01T13:48:13.009Z,38.80
2019-04-01T13:53:05.578Z,39.40
2019-04-01T13:57:58.227Z,37.90
2019-04-01T14:02:50.926Z,38.90
2019-04-01T14:07:43.419Z,37.90
2019-04-01T14:12:35.885Z,39.30
2019-04-01T14:17:28.721Z,39.80
2019-04-01T14:22:20.963Z,40.20
2019-04-01T14:27:13.094Z,41.50
2019-04-01T14:32:05.685Z,43.10
2019-04-01T14:36:58.213Z,44.50
2019-04-01T14:41:50.837Z,44.60
2019-04-01T14:46:43.628Z,47.00
2019-04-01T14:51:35.965Z,47.70
2019-04-01T14:56:28.693Z,47.80
2019-04-01T15:01:21.049Z,48.20
2019-04-01T15:06:13.833Z,49.00
2019-04-01T15:11:06.357Z,49.10
2019-04-01T15:15:58.584Z,50.20
2019-04-01T15:20:51.630Z,50.60
2019-04-01T15:25:44.161Z,51.40
2019-04-01T15:30:36.654Z,52.00
2019-04-01T15:35:29.243Z,52.40
2019-04-01T15:40:21.850Z,53.10
2019-04-01T15:45:14.839Z,53.00
2019-04-01T15:50:07.485Z,52.60
2019-04-01T15:55:00.097Z,52.20
2019-04-01T15:59:52.437Z,53.00
2019-04-01T16:04:45.021Z,53.00
2019-04-01T16:09:37.331Z,53.70
2019-04-01T16:14:29.753Z,54.90
2019-04-01T16:19:22.289Z,54.40
2019-04-01T16:24:15.335Z,54.40
2019-04-01T16:29:09.025Z,55.40
2019-04-01T16:34:01.371Z,55.40
2019-04-01T16:38:53.855Z,55.00
2019-04-01T16:43:46.429Z,55.30
2019-04-01T16:48:39.276Z,55.40
2019-04-01T16:53:31.749Z,55.70
2019-04-01T16:58:24.586Z,56.80
2019-04-01T17:03:19.372Z,58.40
2019-04-01T17:08:12.153Z,57.70
2019-04-01T17:13:06.247Z,58.60
2019-04-01T17:17:58.651Z,59.90
2019-04-01T17:22:51.639Z,60.50
2019-04-01T17:27:44.062Z,61.30
2019-04-01T17:32:36.585Z,62.00
2019-04-01T17:37:29.481Z,63.30
2019-04-01T17:42:22.101Z,64.10
2019-04-01T17:47:23.362Z,64.40
2019-04-01T17:52:15.489Z,64.60
2019-04-01T17:57:08.081Z,65.60
2019-04-01T18:02:00.804Z,65.90
2019-04-01T18:06:53.649Z,66.50
2019-04-01T18:11:48.468Z,66.20
2019-04-01T18:16:40.286Z,66.80
2019-04-01T18:21:33.365Z,67.40
2019-04-01T18:26:26.201Z,68.20
2019-04-01T18:31:18.938Z,70.00
2019-04-01T18:36:11.621Z,72.40
2019-04-01T18:41:04.269Z,74.90
2019-04-01T18:45:58.085Z,77.30
2019-04-01T18:50:50.883Z,80.20
2019-04-01T18:55:43.608Z,83.00
2019-04-01T19:00:36.494Z,85.40
2019-04-01T19:05:29.264Z,88.00
2019-04-01T19:10:21.745Z,90.30
2019-04-01T19:15:14.272Z,91.60
2019-04-01T19:20:07.544Z,93.00
2019-04-01T19:24:59.945Z,94.30
2019-04-01T19:29:52.433Z,95.90
2019-04-01T19:34:44.906Z,97.20
2019-04-01T19:39:37.572Z,98.60
2019-04-01T19:44:29.973Z,99.60
2019-04-01T19:49:22.670Z,99.90
2019-04-01T19:54:15.140Z,99.90
2019-04-01T19:59:07.898Z,99.90
2019-04-01T20:04:00.484Z,99.90
2019-04-01T20:08:52.910Z,99.90
2019-04-01T20:13:45.526Z,99.90
2019-04-01T20:18:38.148Z,99.90
2019-04-01T20:23:30.605Z,99.90
2019-04-01T20:28:23.214Z,99.90
2019-04-01T20:33:18.017Z,99.90
2019-04-01T20:38:09.517Z,99.90
2019-04-01T20:43:02.274Z,99.90
2019-04-01T20:47:56.109Z,99.90
2019-04-01T20:52:50.075Z,99.90
2019-04-01T20:57:42.634Z,99.90
2019-04-01T21:02:35.413Z,99.90
2019-04-01T21:07:28.358Z,99.90
2019-04-01T21:12:21.075Z,99.90
2019-04-01T21:17:13.453Z,99.90
2019-04-01T21:22:07.200Z,99.90
2019-04-01T21:27:00.669Z,99.90
2019-04-01T21:31:53.046Z,99.90
2019-04-01T21:36:45.713Z,99.90
2019-04-01T21:41:38.364Z,99.90
2019-04-01T21:46:31.125Z,99.90
2019-04-01T21:51:23.764Z,99.90
2019-04-01T21:56:16.138Z,99.90
2019-04-01T22:01:09.341Z,99.90
2019-04-01T22:06:01.809Z,99.90
2019-04-01T22:10:54.014Z,99.90
2019-04-01T22:15:46.469Z,99.90
2019-04-01T22:20:42.490Z,99.90
2019-04-01T22:25:33.105Z,99.90
2019-04-01T22:30:25.547Z,99.90
2019-04-01T22:35:18.282Z,99.90
2019-04-01T22:40:11.246Z,99.90
2019-04-01T22:45:07.286Z,99.90
2019-04-01T22:49:59.653Z,99.90
2019-04-01T22:54:52.286Z,99.90
2019-04-01T22:59:44.786Z,99.90
2019-04-01T23:04:39.193Z,99.90
2019-04-01T23:09:32.098Z,99.90
2019-04-01T23:14:24.937Z,99.90
2019-04-01T23:19:17.722Z,99.90
2019-04-01T23:24:10.390Z,99.90
2019-04-01T23:29:02.615Z,99.90
2019-04-01T23:33:55.069Z,99.90
2019-04-01T23:38:47.771Z,99.90
2019-04-01T23:43:40.280Z,99.90
2019-04-01T23:48:32.930Z,99.90
2019-04-01T23:53:25.473Z,99.90
2019-04-01T23:58:18.013Z,99.90
